Winter Haven, Florida
Current Conditions -  °F | °C
As of 1:53 AM on Thursday 23 Oct 2014 (Local Time) from KGIF Reporting Station
Few Clouds Few Clouds  
Wind Chill: 66°   Ceiling: Unl
Heat Index: 66°   Visibility: 10mi
Dew Point: 59°   Wind: 8mph
Humidity: 78%   Direction: 40°NE
Pressure: 29.99"   Gusts: NA
Location:  28.02°N, 81.73°W
Report Text: KGIF 230553Z AUTO 04007KT 10SM FEW034 19/15 A2999 RMK AO2 SLP153 T01890150 10239 20189 58007
Loading
Personal Weather Stations






























Interactive Weather Map
Tropical Storm Tracking
New forecast layout! Learn more

10-Day Weather Forecast

Advertisements
Track Severe Weather on mobile